Marselisborg — A8VR8 — position and weather

sailwx.info

Track history (hours):
 
Tides and Currents Weather Stations Pressure Air Temp Water Temp Dewpoint Dewpoint Depression Visibility Wind Speed Wind Dir Waves Ship Positions

Marselisborg

Last reported at 2015-Feb-01 01:03 UTC. Time now 2015-Feb-01 22:46 UTC.
Position N 50°28' W 000°50'.

Length 138 m; draft 6.6 m.

Type: Ship. MMSI: 636092036.

Date/timePositionNaut miles runAvg speedWind from/ knotsBaromVisibWave heightAir tempDewpointWater temp
2015-Feb-01 01:03N 50°28' W 000°50'1912.5
2015-Jan-31 23:31N 50°37' W 000°24'6 5.9
2015-Jan-31 22:26N 50°41' W 000°16'0 0.0
2015-Jan-31 21:23N 50°41' W 000°16'0 0.1
2015-Jan-31 20:32N 50°41' W 000°16'0 0.0
2015-Jan-31 19:32N 50°41' W 000°15'0 0.0
2015-Jan-31 18:29N 50°41' W 000°15'0 0.0
2015-Jan-31 15:14N 50°41' W 000°16'0 0.0
2015-Jan-31 14:23N 50°41' W 000°16'0 0.0
2015-Jan-31 13:32N 50°41' W 000°16'0 0.1
2015-Jan-31 12:32N 50°41' W 000°16'0 0.1
2015-Jan-31 11:31N 50°41' W 000°16'0 0.1
2015-Jan-31 10:25N 50°41' W 000°15'0 0.0
2015-Jan-31 09:31N 50°41' W 000°15'0 0.0
2015-Jan-31 08:31N 50°41' W 000°15'0 0.0
2015-Jan-31 07:34N 50°41' W 000°15'0 0.0
2015-Jan-31 06:31N 50°41' W 000°15'0 0.0
2015-Jan-31 05:28N 50°41' W 000°15'0 0.0
2015-Jan-31 04:34N 50°41' W 000°15'0 0.0
2015-Jan-31 03:34N 50°41' W 000°15'0 0.0
2015-Jan-31 02:31N 50°41' W 000°15'0 0.0
2015-Jan-31 01:34N 50°41' W 000°15'0 0.0
2015-Jan-30 23:28N 50°41' W 000°16'0 0.0
2015-Jan-30 22:31N 50°41' W 000°16'0 0.1
2015-Jan-30 21:28N 50°41' W 000°15'0 0.0
2015-Jan-30 20:31N 50°41' W 000°15'0 0.0
2015-Jan-30 19:31N 50°41' W 000°15'0 0.0
2015-Jan-30 18:34N 50°41' W 000°15'0 0.0
2015-Jan-30 17:28N 50°41' W 000°15'0 0.0
2015-Jan-30 16:34N 50°41' W 000°16'0 0.0
2015-Jan-30 15:34N 50°41' W 000°15'0 0.0
2015-Jan-30 14:30N 50°41' W 000°16'0 0.0
2015-Jan-30 13:31N 50°41' W 000°16'0 0.1
2015-Jan-30 12:33N 50°41' W 000°16'0 0.1
2015-Jan-30 11:33N 50°41' W 000°16'0 0.0
2015-Jan-30 10:33N 50°41' W 000°16'0 0.0
2015-Jan-30 09:33N 50°41' W 000°16'0 0.1
2015-Jan-30 08:15N 50°41' W 000°16'0 0.1
2015-Jan-30 07:33N 50°41' W 000°15'0 0.0
2015-Jan-30 06:30N 50°41' W 000°15'0 0.0
2015-Jan-30 05:30N 50°41' W 000°15'0 0.0
2015-Jan-30 04:27N 50°41' W 000°16'0 0.0
2015-Jan-30 03:30N 50°41' W 000°16'0 0.0
2015-Jan-30 02:30N 50°41' W 000°16'0 0.0
2015-Jan-30 01:30N 50°41' W 000°16'0 0.0
2015-Jan-30 00:33N 50°41' W 000°16'0 0.0
2015-Jan-29 23:24N 50°41' W 000°16'0 0.0
2015-Jan-29 22:33N 50°41' W 000°16'0 0.0
2015-Jan-29 21:33N 50°41' W 000°16'0 0.0
2015-Jan-29 20:30N 50°41' W 000°16'0 0.0
2015-Jan-29 19:12N 50°41' W 000°16'0 0.0
2015-Jan-29 18:33N 50°41' W 000°16'0 0.0
2015-Jan-29 17:21N 50°41' W 000°16'0 0.0
2015-Jan-29 16:27N 50°41' W 000°16'0 0.0
2015-Jan-29 15:33N 50°41' W 000°16'0 0.0
2015-Jan-29 14:12N 50°41' W 000°16'0 0.0
2015-Jan-29 13:33N 50°41' W 000°16'0 0.0
2015-Jan-29 12:15N 50°41' W 000°16'0 0.0
2015-Jan-29 11:33N 50°41' W 000°16'0 0.0
2015-Jan-29 10:27N 50°41' W 000°16'0 0.0
2015-Jan-29 09:30N 50°41' W 000°16'0 0.0
2015-Jan-29 08:18N 50°41' W 000°16'0 0.0
2015-Jan-29 07:30N 50°41' W 000°16'0 0.0
2015-Jan-29 06:15N 50°41' W 000°16'0 0.0
2015-Jan-29 05:21N 50°41' W 000°16'0 0.0
2015-Jan-29 04:24N 50°41' W 000°16'0 0.0
2015-Jan-29 02:27N 50°41' W 000°16'0 0.0
2015-Jan-29 01:30N 50°41' W 000°16'0 0.0
2015-Jan-29 00:18N 50°41' W 000°16'0 0.0
2015-Jan-28 23:33N 50°41' W 000°16'0 0.0
2015-Jan-28 22:21N 50°41' W 000°16'0 0.0
2015-Jan-28 20:33N 50°41' W 000°16'23 7.7
2015-Jan-28 17:33N 50°34' E 000°19'7 7.4
2015-Jan-28 16:33N 50°36' E 000°30'7 6.6
2015-Jan-28 15:33N 50°39' E 000°40'6 6.5
2015-Jan-28 14:33N 50°40' E 000°49'6 5.9
2015-Jan-28 13:33N 50°44' E 000°57'7 6.9
2015-Jan-28 12:33N 50°49' E 001°05'10 8.3
2015-Jan-28 11:18N 50°55' E 001°18'7 9.1
2015-Jan-28 10:34N 50°60' E 001°25'9 8.6
2015-Jan-28 09:33N 51°06' E 001°35'9 8.8
2015-Jan-28 08:33N 51°12' E 001°45'9 8.7
2015-Jan-28 07:33N 51°19' E 001°53'8 7.8
2015-Jan-28 06:33N 51°24' E 002°02'1110.5
2015-Jan-28 05:31N 51°21' E 002°18'1010.8
2015-Jan-28 04:33N 51°23' E 002°35'1211.9
2015-Jan-28 03:33N 51°23' E 002°54'1313.1
2015-Jan-28 02:33N 51°25' E 003°15'1313.2
2015-Jan-28 01:33N 51°26' E 003°36'10 9.9
2015-Jan-28 00:34N 51°21' E 003°49'1010.4
2015-Jan-27 23:33N 51°22' E 004°06'7 7.1
2015-Jan-27 22:33N 51°21' E 004°17'0 0.0
2015-Jan-27 21:33N 51°21' E 004°17'3 3.0
2015-Jan-27 20:33N 51°18' E 004°20'2 2.2
2015-Jan-27 19:33N 51°17' E 004°22'0 0.0
2015-Jan-27 18:33N 51°17' E 004°22'0 0.0
2015-Jan-27 17:31N 51°17' E 004°22'0 0.0
2015-Jan-27 16:31N 51°17' E 004°22'0 0.0
2015-Jan-27 15:31N 51°17' E 004°22'0 0.0
2015-Jan-27 14:31N 51°17' E 004°22'0 0.0
2015-Jan-27 13:31N 51°17' E 004°22'0 0.0
2015-Jan-27 12:31N 51°17' E 004°22'0 0.0
2015-Jan-27 11:28N 51°17' E 004°22'0 0.0
2015-Jan-27 10:31N 51°17' E 004°22'0 0.0
2015-Jan-27 09:31N 51°17' E 004°22'0 0.0
2015-Jan-27 08:31N 51°17' E 004°22'0 0.0
2015-Jan-27 07:31N 51°17' E 004°22'0 0.0
2015-Jan-27 06:28N 51°17' E 004°22'0 0.0
2015-Jan-27 05:28N 51°17' E 004°22'0 0.0
2015-Jan-27 04:28N 51°17' E 004°22'0 0.0
2015-Jan-27 03:31N 51°17' E 004°22'0 0.0
2015-Jan-27 02:31N 51°17' E 004°22'0 0.0
2015-Jan-27 01:31N 51°17' E 004°22'0 0.0
2015-Jan-27 00:31N 51°17' E 004°22'0 0.0
2015-Jan-26 23:31N 51°17' E 004°22'0 0.0
2015-Jan-26 22:31N 51°17' E 004°22'0 0.0
2015-Jan-26 21:31N 51°17' E 004°22'0 0.0
2015-Jan-26 20:31N 51°17' E 004°22'0 0.0
2015-Jan-26 19:31N 51°17' E 004°22'0 0.0
2015-Jan-26 18:31N 51°17' E 004°22'0 0.0
2015-Jan-26 17:31N 51°17' E 004°22'0 0.0
2015-Jan-26 16:31N 51°17' E 004°22'0 0.0
2015-Jan-26 15:31N 51°17' E 004°22'0 0.0
2015-Jan-26 14:31N 51°17' E 004°22'0 0.0
2015-Jan-26 13:31N 51°17' E 004°22'0 0.0
2015-Jan-26 12:28N 51°17' E 004°22'0 0.0
2015-Jan-26 11:31N 51°17' E 004°22'0 0.0
2015-Jan-26 10:31N 51°17' E 004°22'0 0.0
2015-Jan-26 09:31N 51°17' E 004°22'0 0.0
2015-Jan-26 08:28N 51°17' E 004°22'0 0.0
2015-Jan-26 07:31N 51°17' E 004°22'0 0.0
2015-Jan-26 06:31N 51°17' E 004°22'0 0.0
2015-Jan-26 05:31N 51°17' E 004°22'0 0.0
2015-Jan-26 04:31N 51°17' E 004°22'0 0.0
2015-Jan-26 03:31N 51°17' E 004°22'0 0.0
2015-Jan-26 02:31N 51°17' E 004°22'0 0.0
2015-Jan-26 01:31N 51°17' E 004°22'0 0.0
2015-Jan-26 00:31N 51°17' E 004°22'0 0.0
2015-Jan-25 23:31N 51°17' E 004°22'0 0.0
2015-Jan-25 22:31N 51°17' E 004°22'0 0.0
2015-Jan-25 21:31N 51°17' E 004°22'0 0.0
2015-Jan-25 20:31N 51°17' E 004°22'0 0.0
2015-Jan-25 19:31N 51°17' E 004°22'0 0.0
2015-Jan-25 18:31N 51°17' E 004°22'0 0.0
2015-Jan-25 17:28N 51°17' E 004°22'0 0.0
2015-Jan-25 16:31N 51°17' E 004°22'0 0.0
2015-Jan-25 15:31N 51°17' E 004°22'0 0.0
2015-Jan-25 14:31N 51°17' E 004°22'0 0.0
2015-Jan-25 13:31N 51°17' E 004°22'0 0.0
2015-Jan-25 12:31N 51°17' E 004°22'0 0.0
2015-Jan-25 11:28N 51°17' E 004°22'0 0.0
2015-Jan-25 10:31N 51°17' E 004°22'0 0.0
2015-Jan-25 09:31N 51°17' E 004°22'0 0.0
2015-Jan-25 08:28N 51°17' E 004°22'0 0.0
2015-Jan-25 07:31N 51°17' E 004°22'0 0.0
2015-Jan-25 06:31N 51°17' E 004°22'0 0.0
2015-Jan-25 05:31N 51°17' E 004°22'0 0.0
2015-Jan-25 04:31N 51°17' E 004°22'0 0.0
2015-Jan-25 03:28N 51°17' E 004°22'0 0.0
2015-Jan-25 02:31N 51°17' E 004°22'0 0.0
2015-Jan-25 01:31N 51°17' E 004°22'0 0.0
2015-Jan-25 00:31N 51°17' E 004°22'0 0.0
2015-Jan-24 23:31N 51°17' E 004°22'0 0.0
2015-Jan-24 22:31N 51°17' E 004°22'0 0.0
2015-Jan-24 21:31N 51°17' E 004°22'0 0.0
2015-Jan-24 20:31N 51°17' E 004°22'0 0.0
2015-Jan-24 19:31N 51°17' E 004°22'0 0.0
2015-Jan-24 18:31N 51°17' E 004°22'0 0.1
2015-Jan-24 17:33N 51°17' E 004°22'1 1.4
2015-Jan-24 16:34N 51°17' E 004°20'5 4.8
2015-Jan-24 15:34N 51°21' E 004°16'9 9.5
2015-Jan-24 14:34N 51°25' E 004°02'1110.8
2015-Jan-24 13:33N 51°22' E 003°45'9 9.0
2015-Jan-24 12:33N 51°25' E 003°32'6 6.0
2015-Jan-24 11:34N 51°24' E 003°22'10 9.5
2015-Jan-24 10:29N 51°24' E 003°06'910.3
2015-Jan-24 09:33N 51°22' E 002°51'8 7.9
2015-Jan-24 08:33N 51°22' E 002°38'7 6.7
2015-Jan-24 07:27N 51°21' E 002°27'9 9.8
2015-Jan-24 06:34N 51°17' E 002°15'1212.4
2015-Jan-24 05:34N 51°10' E 001°58'1212.4
2015-Jan-24 04:34N 51°03' E 001°42'4986107.9
2015-Jan-22 06:21N 46°12' W 123°49'1113.9
2015-Jan-22 05:32N 46°15' W 123°33'  
Track history (hours):
 
Tides and Currents Weather Stations Pressure Air Temp Water Temp Dewpoint Dewpoint Depression Visibility Wind Speed Wind Dir Waves Ship Positions

Marselisborg

Last reported at 2015-Feb-01 01:03 UTC. Time now 2015-Feb-01 22:46 UTC.
Position N 50°28' W 000°50'.

Length 138 m; draft 6.6 m.

Type: Ship. MMSI: 636092036.

Date/timePositionNaut miles runAvg speedWind from/ knotsBaromVisibWave heightAir tempDewpointWater temp
2015-Feb-01 01:03N 50°28' W 000°50'1912.5
2015-Jan-31 23:31N 50°37' W 000°24'6 5.9
2015-Jan-31 22:26N 50°41' W 000°16'0 0.0
2015-Jan-31 21:23N 50°41' W 000°16'0 0.1
2015-Jan-31 20:32N 50°41' W 000°16'0 0.0
2015-Jan-31 19:32N 50°41' W 000°15'0 0.0
2015-Jan-31 18:29N 50°41' W 000°15'0 0.0
2015-Jan-31 15:14N 50°41' W 000°16'0 0.0
2015-Jan-31 14:23N 50°41' W 000°16'0 0.0
2015-Jan-31 13:32N 50°41' W 000°16'0 0.1
2015-Jan-31 12:32N 50°41' W 000°16'0 0.1
2015-Jan-31 11:31N 50°41' W 000°16'0 0.1
2015-Jan-31 10:25N 50°41' W 000°15'0 0.0
2015-Jan-31 09:31N 50°41' W 000°15'0 0.0
2015-Jan-31 08:31N 50°41' W 000°15'0 0.0
2015-Jan-31 07:34N 50°41' W 000°15'0 0.0
2015-Jan-31 06:31N 50°41' W 000°15'0 0.0
2015-Jan-31 05:28N 50°41' W 000°15'0 0.0
2015-Jan-31 04:34N 50°41' W 000°15'0 0.0
2015-Jan-31 03:34N 50°41' W 000°15'0 0.0
2015-Jan-31 02:31N 50°41' W 000°15'0 0.0
2015-Jan-31 01:34N 50°41' W 000°15'0 0.0
2015-Jan-30 23:28N 50°41' W 000°16'0 0.0
2015-Jan-30 22:31N 50°41' W 000°16'0 0.1
2015-Jan-30 21:28N 50°41' W 000°15'0 0.0
2015-Jan-30 20:31N 50°41' W 000°15'0 0.0
2015-Jan-30 19:31N 50°41' W 000°15'0 0.0
2015-Jan-30 18:34N 50°41' W 000°15'0 0.0
2015-Jan-30 17:28N 50°41' W 000°15'0 0.0
2015-Jan-30 16:34N 50°41' W 000°16'0 0.0
2015-Jan-30 15:34N 50°41' W 000°15'0 0.0
2015-Jan-30 14:30N 50°41' W 000°16'0 0.0
2015-Jan-30 13:31N 50°41' W 000°16'0 0.1
2015-Jan-30 12:33N 50°41' W 000°16'0 0.1
2015-Jan-30 11:33N 50°41' W 000°16'0 0.0
2015-Jan-30 10:33N 50°41' W 000°16'0 0.0
2015-Jan-30 09:33N 50°41' W 000°16'0 0.1
2015-Jan-30 08:15N 50°41' W 000°16'0 0.1
2015-Jan-30 07:33N 50°41' W 000°15'0 0.0
2015-Jan-30 06:30N 50°41' W 000°15'0 0.0
2015-Jan-30 05:30N 50°41' W 000°15'0 0.0
2015-Jan-30 04:27N 50°41' W 000°16'0 0.0
2015-Jan-30 03:30N 50°41' W 000°16'0 0.0
2015-Jan-30 02:30N 50°41' W 000°16'0 0.0
2015-Jan-30 01:30N 50°41' W 000°16'0 0.0
2015-Jan-30 00:33N 50°41' W 000°16'0 0.0
2015-Jan-29 23:24N 50°41' W 000°16'0 0.0
2015-Jan-29 22:33N 50°41' W 000°16'0 0.0
2015-Jan-29 21:33N 50°41' W 000°16'0 0.0
2015-Jan-29 20:30N 50°41' W 000°16'0 0.0
2015-Jan-29 19:12N 50°41' W 000°16'0 0.0
2015-Jan-29 18:33N 50°41' W 000°16'0 0.0
2015-Jan-29 17:21N 50°41' W 000°16'0 0.0
2015-Jan-29 16:27N 50°41' W 000°16'0 0.0
2015-Jan-29 15:33N 50°41' W 000°16'0 0.0
2015-Jan-29 14:12N 50°41' W 000°16'0 0.0
2015-Jan-29 13:33N 50°41' W 000°16'0 0.0
2015-Jan-29 12:15N 50°41' W 000°16'0 0.0
2015-Jan-29 11:33N 50°41' W 000°16'0 0.0
2015-Jan-29 10:27N 50°41' W 000°16'0 0.0
2015-Jan-29 09:30N 50°41' W 000°16'0 0.0
2015-Jan-29 08:18N 50°41' W 000°16'0 0.0
2015-Jan-29 07:30N 50°41' W 000°16'0 0.0
2015-Jan-29 06:15N 50°41' W 000°16'0 0.0
2015-Jan-29 05:21N 50°41' W 000°16'0 0.0
2015-Jan-29 04:24N 50°41' W 000°16'0 0.0
2015-Jan-29 02:27N 50°41' W 000°16'0 0.0
2015-Jan-29 01:30N 50°41' W 000°16'0 0.0
2015-Jan-29 00:18N 50°41' W 000°16'0 0.0
2015-Jan-28 23:33N 50°41' W 000°16'0 0.0
2015-Jan-28 22:21N 50°41' W 000°16'0 0.0
2015-Jan-28 20:33N 50°41' W 000°16'23 7.7
2015-Jan-28 17:33N 50°34' E 000°19'7 7.4
2015-Jan-28 16:33N 50°36' E 000°30'7 6.6
2015-Jan-28 15:33N 50°39' E 000°40'6 6.5
2015-Jan-28 14:33N 50°40' E 000°49'6 5.9
2015-Jan-28 13:33N 50°44' E 000°57'7 6.9
2015-Jan-28 12:33N 50°49' E 001°05'10 8.3
2015-Jan-28 11:18N 50°55' E 001°18'7 9.1
2015-Jan-28 10:34N 50°60' E 001°25'9 8.6
2015-Jan-28 09:33N 51°06' E 001°35'9 8.8
2015-Jan-28 08:33N 51°12' E 001°45'9 8.7
2015-Jan-28 07:33N 51°19' E 001°53'8 7.8
2015-Jan-28 06:33N 51°24' E 002°02'1110.5
2015-Jan-28 05:31N 51°21' E 002°18'1010.8
2015-Jan-28 04:33N 51°23' E 002°35'1211.9
2015-Jan-28 03:33N 51°23' E 002°54'1313.1
2015-Jan-28 02:33N 51°25' E 003°15'1313.2
2015-Jan-28 01:33N 51°26' E 003°36'10 9.9
2015-Jan-28 00:34N 51°21' E 003°49'1010.4
2015-Jan-27 23:33N 51°22' E 004°06'7 7.1
2015-Jan-27 22:33N 51°21' E 004°17'0 0.0
2015-Jan-27 21:33N 51°21' E 004°17'3 3.0
2015-Jan-27 20:33N 51°18' E 004°20'2 2.2
2015-Jan-27 19:33N 51°17' E 004°22'0 0.0
2015-Jan-27 18:33N 51°17' E 004°22'0 0.0
2015-Jan-27 17:31N 51°17' E 004°22'0 0.0
2015-Jan-27 16:31N 51°17' E 004°22'0 0.0
2015-Jan-27 15:31N 51°17' E 004°22'0 0.0
2015-Jan-27 14:31N 51°17' E 004°22'0 0.0
2015-Jan-27 13:31N 51°17' E 004°22'0 0.0
2015-Jan-27 12:31N 51°17' E 004°22'0 0.0
2015-Jan-27 11:28N 51°17' E 004°22'0 0.0
2015-Jan-27 10:31N 51°17' E 004°22'0 0.0
2015-Jan-27 09:31N 51°17' E 004°22'0 0.0
2015-Jan-27 08:31N 51°17' E 004°22'0 0.0
2015-Jan-27 07:31N 51°17' E 004°22'0 0.0
2015-Jan-27 06:28N 51°17' E 004°22'0 0.0
2015-Jan-27 05:28N 51°17' E 004°22'0 0.0
2015-Jan-27 04:28N 51°17' E 004°22'0 0.0
2015-Jan-27 03:31N 51°17' E 004°22'0 0.0
2015-Jan-27 02:31N 51°17' E 004°22'0 0.0
2015-Jan-27 01:31N 51°17' E 004°22'0 0.0
2015-Jan-27 00:31N 51°17' E 004°22'0 0.0
2015-Jan-26 23:31N 51°17' E 004°22'0 0.0
2015-Jan-26 22:31N 51°17' E 004°22'0 0.0
2015-Jan-26 21:31N 51°17' E 004°22'0 0.0
2015-Jan-26 20:31N 51°17' E 004°22'0 0.0
2015-Jan-26 19:31N 51°17' E 004°22'0 0.0
2015-Jan-26 18:31N 51°17' E 004°22'0 0.0
2015-Jan-26 17:31N 51°17' E 004°22'0 0.0
2015-Jan-26 16:31N 51°17' E 004°22'0 0.0
2015-Jan-26 15:31N 51°17' E 004°22'0 0.0
2015-Jan-26 14:31N 51°17' E 004°22'0 0.0
2015-Jan-26 13:31N 51°17' E 004°22'0 0.0
2015-Jan-26 12:28N 51°17' E 004°22'0 0.0
2015-Jan-26 11:31N 51°17' E 004°22'0 0.0
2015-Jan-26 10:31N 51°17' E 004°22'0 0.0
2015-Jan-26 09:31N 51°17' E 004°22'0 0.0
2015-Jan-26 08:28N 51°17' E 004°22'0 0.0
2015-Jan-26 07:31N 51°17' E 004°22'0 0.0
2015-Jan-26 06:31N 51°17' E 004°22'0 0.0
2015-Jan-26 05:31N 51°17' E 004°22'0 0.0
2015-Jan-26 04:31N 51°17' E 004°22'0 0.0
2015-Jan-26 03:31N 51°17' E 004°22'0 0.0
2015-Jan-26 02:31N 51°17' E 004°22'0 0.0
2015-Jan-26 01:31N 51°17' E 004°22'0 0.0
2015-Jan-26 00:31N 51°17' E 004°22'0 0.0
2015-Jan-25 23:31N 51°17' E 004°22'0 0.0
2015-Jan-25 22:31N 51°17' E 004°22'0 0.0
2015-Jan-25 21:31N 51°17' E 004°22'0 0.0
2015-Jan-25 20:31N 51°17' E 004°22'0 0.0
2015-Jan-25 19:31N 51°17' E 004°22'0 0.0
2015-Jan-25 18:31N 51°17' E 004°22'0 0.0
2015-Jan-25 17:28N 51°17' E 004°22'0 0.0
2015-Jan-25 16:31N 51°17' E 004°22'0 0.0
2015-Jan-25 15:31N 51°17' E 004°22'0 0.0
2015-Jan-25 14:31N 51°17' E 004°22'0 0.0
2015-Jan-25 13:31N 51°17' E 004°22'0 0.0
2015-Jan-25 12:31N 51°17' E 004°22'0 0.0
2015-Jan-25 11:28N 51°17' E 004°22'0 0.0
2015-Jan-25 10:31N 51°17' E 004°22'0 0.0
2015-Jan-25 09:31N 51°17' E 004°22'0 0.0
2015-Jan-25 08:28N 51°17' E 004°22'0 0.0
2015-Jan-25 07:31N 51°17' E 004°22'0 0.0
2015-Jan-25 06:31N 51°17' E 004°22'0 0.0
2015-Jan-25 05:31N 51°17' E 004°22'0 0.0
2015-Jan-25 04:31N 51°17' E 004°22'0 0.0
2015-Jan-25 03:28N 51°17' E 004°22'0 0.0
2015-Jan-25 02:31N 51°17' E 004°22'0 0.0
2015-Jan-25 01:31N 51°17' E 004°22'0 0.0
2015-Jan-25 00:31N 51°17' E 004°22'0 0.0
2015-Jan-24 23:31N 51°17' E 004°22'0 0.0
2015-Jan-24 22:31N 51°17' E 004°22'0 0.0
2015-Jan-24 21:31N 51°17' E 004°22'0 0.0
2015-Jan-24 20:31N 51°17' E 004°22'0 0.0
2015-Jan-24 19:31N 51°17' E 004°22'0 0.0
2015-Jan-24 18:31N 51°17' E 004°22'0 0.1
2015-Jan-24 17:33N 51°17' E 004°22'1 1.4
2015-Jan-24 16:34N 51°17' E 004°20'5 4.8
2015-Jan-24 15:34N 51°21' E 004°16'9 9.5
2015-Jan-24 14:34N 51°25' E 004°02'1110.8
2015-Jan-24 13:33N 51°22' E 003°45'9 9.0
2015-Jan-24 12:33N 51°25' E 003°32'6 6.0
2015-Jan-24 11:34N 51°24' E 003°22'10 9.5
2015-Jan-24 10:29N 51°24' E 003°06'910.3
2015-Jan-24 09:33N 51°22' E 002°51'8 7.9
2015-Jan-24 08:33N 51°22' E 002°38'7 6.7
2015-Jan-24 07:27N 51°21' E 002°27'9 9.8
2015-Jan-24 06:34N 51°17' E 002°15'1212.4
2015-Jan-24 05:34N 51°10' E 001°58'1212.4
2015-Jan-24 04:34N 51°03' E 001°42'4986107.9
2015-Jan-22 06:21N 46°12' W 123°49'1113.9
2015-Jan-22 05:32N 46°15' W 123°33'  

Dump ship's entire track history